»·PEaware :: N416JK KRDD-KSAC

N416JK :: KRDD-KSAC

FLIGHT INFORMATION

Flight Status: Arrived
Operator: Privately registered:
United States
More flights under this callsign
Pilot: John K. (4202)
Aircraft: Unknown
(PIPA)
More flights by this aircraft type
Origin: KRDD Redding Mun
United States
Destination: KSAC Sacramento Executive
United States
More flights between these airports :: More routes between these airports
Route: +HOMAN2 HOMAN V25 RBL V23 EYPOF
File this flight plan on PilotEdge
Remarks:
Altitude:
(Current/Filed)
4,000ft
Speed:
(Current/Filed)
160kts
Departed: 17-Oct-19 11:10 AM
Arrived: 17-Oct-19 11:59 AM
Distance/Time
Traveled:
125nm/0:49
Distance/Time
To Go:
Arrived

Flight Plot

Page will automatically refresh every two minutes.

Flight plan parsing failed; only flown route is shown


Map Options




Map Legend


Flown Route
Filed Route
Departure Airport
Arrival Airport
Navaid (VOR, NDB)
Fix

Horizontal Profiles

Position Reports

Time Latitude Longitude Heading Altitude Ground
Speed
17-Oct-19 10:46 40.508940 -122.299075 0 503ft 0kts
17-Oct-19 10:47 40.509006 -122.299049 23 503ft 0kts
17-Oct-19 10:48 40.509006 -122.299049 23 503ft 0kts
17-Oct-19 10:49 40.509006 -122.299049 23 503ft 0kts
17-Oct-19 10:50 40.509006 -122.299049 23 503ft 0kts
17-Oct-19 10:58 40.508943 -122.299061 0 503ft 0kts
17-Oct-19 11:00 40.508943 -122.299061 0 503ft 0kts
17-Oct-19 11:01 40.508943 -122.299061 0 503ft 0kts
17-Oct-19 11:01 40.508943 -122.299061 0 503ft 0kts
17-Oct-19 11:02 40.508943 -122.299061 0 503ft 0kts
17-Oct-19 11:04 40.509046 -122.299014 26 503ft 0kts
17-Oct-19 11:04 40.509047 -122.299014 26 503ft 0kts
17-Oct-19 11:05 40.514051 -122.298267 5 503ft 17kts
17-Oct-19 11:06 40.519385 -122.296249 358 503ft 17kts
17-Oct-19 11:07 40.520376 -122.296218 65 503ft 0kts
17-Oct-19 11:08 40.520350 -122.296040 113 503ft 0kts
17-Oct-19 11:09 40.517934 -122.294715 181 503ft 56kts
17-Oct-19 11:10 40.486735 -122.292906 157 1491ft 136kts
17-Oct-19 11:11 40.484126 -122.254390 57 2861ft 134kts
17-Oct-19 11:12 40.466794 -122.213050 129 3452ft 137kts
17-Oct-19 11:13 40.441823 -122.177436 127 3995ft 136kts
17-Oct-19 11:14 40.414849 -122.136851 126 3992ft 135kts
17-Oct-19 11:15 40.387214 -122.128795 198 3899ft 92kts
17-Oct-19 11:16 40.354537 -122.142558 197 3935ft 148kts
17-Oct-19 11:17 40.312645 -122.160037 195 4021ft 167kts
17-Oct-19 11:18 40.267122 -122.179282 196 4019ft 176kts
17-Oct-19 11:19 40.220356 -122.199410 196 4019ft 176kts
17-Oct-19 11:20 40.175469 -122.216688 190 4019ft 175kts
17-Oct-19 11:21 40.130079 -122.229412 190 3999ft 172kts
17-Oct-19 11:22 40.086250 -122.235740 152 3996ft 141kts
17-Oct-19 11:23 40.049497 -122.213861 153 4002ft 165kts
17-Oct-19 11:24 40.009976 -122.191519 154 3999ft 174kts
17-Oct-19 11:25 39.968251 -122.168716 155 4000ft 178kts
17-Oct-19 11:26 39.925349 -122.145707 155 4001ft 180kts
17-Oct-19 11:27 39.882494 -122.122936 156 3999ft 183kts
17-Oct-19 11:28 39.835984 -122.098433 158 3999ft 186kts
17-Oct-19 11:29 39.788494 -122.073626 158 3999ft 187kts
17-Oct-19 11:30 39.737948 -122.047296 158 4002ft 209kts
17-Oct-19 11:31 39.683087 -122.018900 158 3999ft 216kts
17-Oct-19 11:32 39.627171 -121.989962 158 3999ft 217kts
17-Oct-19 11:33 39.571286 -121.961068 158 3999ft 217kts
17-Oct-19 11:34 39.515629 -121.932321 158 4008ft 214kts
17-Oct-19 11:35 39.460466 -121.903852 158 4023ft 212kts
17-Oct-19 11:36 39.405542 -121.875581 158 4018ft 213kts
17-Oct-19 11:37 39.350312 -121.847290 158 4018ft 213kts
17-Oct-19 11:38 39.293758 -121.824439 166 4018ft 213kts
17-Oct-19 11:39 39.236312 -121.805922 166 4015ft 213kts
17-Oct-19 11:40 39.178311 -121.787248 165 4010ft 216kts
17-Oct-19 11:41 39.119838 -121.768343 165 4010ft 216kts
17-Oct-19 11:42 39.061338 -121.749477 165 4010ft 216kts
17-Oct-19 11:43 39.002977 -121.730665 165 4010ft 216kts
17-Oct-19 11:44 38.944527 -121.711845 165 4007ft 217kts
17-Oct-19 11:45 38.885975 -121.693040 164 3999ft 218kts
17-Oct-19 11:46 38.829458 -121.666839 154 3997ft 213kts
17-Oct-19 11:47 38.776709 -121.637675 154 3998ft 205kts
17-Oct-19 11:48 38.726570 -121.610165 154 3996ft 181kts
17-Oct-19 11:49 38.682037 -121.585805 154 3998ft 171kts
17-Oct-19 11:50 38.639976 -121.562843 153 3696ft 146kts
17-Oct-19 11:51 38.609886 -121.546431 153 2681ft 103kts
17-Oct-19 11:52 38.584732 -121.532183 153 1901ft 87kts
17-Oct-19 11:53 38.560007 -121.518539 163 1055ft 101kts
17-Oct-19 11:54 38.535491 -121.526326 222 841ft 95kts
17-Oct-19 11:55 38.515745 -121.547095 228 745ft 88kts
17-Oct-19 11:56 38.496511 -121.541158 115 628ft 98kts
17-Oct-19 11:57 38.493724 -121.510675 41 319ft 74kts
17-Oct-19 11:58 38.509703 -121.497215 35 26ft 34kts
17-Oct-19 11:59 38.511407 -121.497906 274 26ft 23kts

Navigation Log

Ident Type
Flight plan parsing failed, navigation log unavailable